Time;durP1;ratioP1;P1;durP2;ratioP2;P2;SDS_P1;SDS_P2;PMS_P1;PMS_P2;Temp;Humidity;BMP_temperature;BMP_pressure;BME280_temperature;BME280_humidity;BME280_pressure;Samples;Min_cycle;Max_cycle;Signal;HPM_P1;HPM_P2
2021/12/22 00:01:31;;;;;;;2.17;0.80;;;;;;;-1.50;74.91;101370.47;5063179;28;20084;-73
2021/12/22 00:03:58;;;;;;;1.05;0.95;;;;;;;-1.28;74.28;101380.22;5063363;28;20036;-73
2021/12/22 00:06:26;;;;;;;1.52;0.93;;;;;;;-1.36;74.33;101366.19;5063138;28;20025;-72
2021/12/22 00:08:51;;;;;;;1.55;0.73;;;;;;;-1.35;74.38;101388.31;5061909;28;20079;-73
2021/12/22 00:11:17;;;;;;;1.02;0.80;;;;;;;-1.28;74.15;101387.84;5062674;28;20465;-73
2021/12/22 00:13:43;;;;;;;3.45;0.90;;;;;;;-1.25;73.84;101369.34;5063241;28;20053;-73
2021/12/22 00:16:09;;;;;;;1.85;0.95;;;;;;;-1.43;74.62;101376.81;5063125;28;20025;-73
2021/12/22 00:18:34;;;;;;;1.10;0.77;;;;;;;-1.15;73.95;101361.38;5063010;28;20483;-73
2021/12/22 00:21:00;;;;;;;0.70;0.70;;;;;;;-1.26;73.71;101368.44;5062906;28;20024;-74
2021/12/22 00:23:26;;;;;;;1.13;1.02;;;;;;;-1.27;73.96;101370.91;5061538;28;20028;-73
2021/12/22 00:25:51;;;;;;;2.88;0.90;;;;;;;-1.07;72.93;101358.41;5062799;28;20032;-73
2021/12/22 00:28:16;;;;;;;1.17;0.90;;;;;;;-0.99;72.84;101362.22;5061799;28;20031;-73
2021/12/22 00:30:42;;;;;;;0.60;0.60;;;;;;;-1.13;73.27;101362.34;5063162;28;20036;-73
2021/12/22 00:33:10;;;;;;;1.25;1.02;;;;;;;-1.03;73.12;101356.09;5063075;28;20044;-73
2021/12/22 00:35:45;;;;;;;1.90;1.00;;;;;;;-1.20;73.48;101362.81;5062985;28;20017;-73
2021/12/22 00:38:17;;;;;;;0.95;0.90;;;;;;;-1.22;73.47;101359.31;5061798;28;20032;-74
2021/12/22 00:40:44;;;;;;;0.77;0.77;;;;;;;-1.06;72.78;101355.03;5062886;28;20029;-73
2021/12/22 00:43:10;;;;;;;1.55;1.10;;;;;;;-0.99;72.72;101357.13;5062918;28;20025;-73
2021/12/22 00:45:36;;;;;;;0.77;0.70;;;;;;;-1.00;73.03;101363.03;5062920;28;20049;-73
2021/12/22 00:48:03;;;;;;;1.27;0.95;;;;;;;-1.31;73.75;101374.09;5062869;28;20028;-73
2021/12/22 00:50:30;;;;;;;1.85;1.30;;;;;;;-1.28;74.50;101369.16;5062921;28;20031;-74
2021/12/22 00:52:55;;;;;;;0.90;0.88;;;;;;;-1.01;73.44;101362.13;5063442;28;20021;-72
2021/12/22 00:55:21;;;;;;;1.30;1.02;;;;;;;-1.29;74.01;101355.53;5066634;28;20029;-73
2021/12/22 00:57:48;;;;;;;2.38;1.00;;;;;;;-1.19;73.93;101373.88;5066429;28;20032;-73
2021/12/22 01:00:14;;;;;;;1.45;0.90;;;;;;;-1.12;73.81;101371.75;5066568;28;20433;-73
2021/12/22 01:02:40;;;;;;;0.90;0.80;;;;;;;-1.04;74.07;101372.16;5066150;28;20021;-73
2021/12/22 01:05:07;;;;;;;0.50;0.50;;;;;;;-1.08;74.23;101365.16;5066061;28;20032;-73
2021/12/22 01:07:32;;;;;;;0.80;0.80;;;;;;;-0.95;73.72;101370.91;5064981;28;20385;-73
2021/12/22 01:09:57;;;;;;;1.88;1.27;;;;;;;-1.26;74.71;101378.63;5064774;28;20025;-73
2021/12/22 01:12:23;;;;;;;1.35;1.25;;;;;;;-1.22;75.10;101381.34;5066082;28;20036;-74
2021/12/22 01:14:48;;;;;;;0.95;0.82;;;;;;;-1.12;74.92;101378.53;5066059;28;20024;-73
2021/12/22 01:17:16;;;;;;;1.00;0.90;;;;;;;-1.13;74.79;101367.44;5066260;28;20036;-73
2021/12/22 01:20:03;;;;;;;1.08;0.82;;;;;;;-1.39;76.02;101379.63;5066305;28;20025;-73
2021/12/22 01:22:47;;;;;;;0.88;0.88;;;;;;;-1.39;75.74;101377.06;5066303;28;20096;-73
2021/12/22 01:25:15;;;;;;;0.70;0.70;;;;;;;-1.03;74.79;101371.41;5066097;28;20025;-74
2021/12/22 01:27:42;;;;;;;2.00;0.70;;;;;;;-1.17;75.36;101368.09;5066272;28;20017;-73
2021/12/22 01:30:14;;;;;;;1.10;0.77;;;;;;;-1.22;75.75;101368.63;5067148;28;20032;-73
2021/12/22 01:32:41;;;;;;;3.13;1.35;;;;;;;-1.05;75.39;101364.44;5066288;28;20021;-74
2021/12/22 01:35:10;;;;;;;6.95;1.20;;;;;;;-0.92;75.40;101366.00;5065749;28;20036;-72
2021/12/22 01:37:35;;;;;;;1.40;1.23;;;;;;;-1.20;75.88;101339.00;5068852;28;20020;-73
2021/12/22 01:40:01;;;;;;;1.33;1.23;;;;;;;-1.15;76.19;101365.63;5072288;28;20190;-71
2021/12/22 01:42:28;;;;;;;2.85;1.15;;;;;;;-1.21;76.67;101360.16;5073167;28;20021;-73
2021/12/22 01:50:49;;;;;;;1.50;1.40;;;;;;;-1.46;78.04;101358.81;5068255;28;20055;-73
2021/12/22 01:53:20;;;;;;;1.98;1.20;;;;;;;-1.22;77.10;101349.13;5065350;28;20033;-74
2021/12/22 01:55:59;;;;;;;1.73;1.00;;;;;;;-1.21;77.34;101340.66;5064451;28;20025;-72
2021/12/22 01:58:34;;;;;;;1.10;1.00;;;;;;;-1.16;77.01;101344.34;5065773;28;20025;-72
2021/12/22 02:01:01;;;;;;;2.00;1.17;;;;;;;-1.06;76.47;101340.63;5065433;28;20100;-74
2021/12/22 02:03:26;;;;;;;2.30;1.08;;;;;;;-1.17;77.40;101344.28;5065191;28;20020;-72
2021/12/22 02:05:52;;;;;;;2.95;1.50;;;;;;;-1.26;77.47;101349.72;5064888;28;20403;-73
2021/12/22 02:08:17;;;;;;;1.65;1.20;;;;;;;-1.20;77.68;101341.56;5065135;28;20023;-74
2021/12/22 02:10:47;;;;;;;2.15;1.27;;;;;;;-1.11;77.33;101349.69;5064810;28;20083;-74
2021/12/22 02:13:17;;;;;;;1.40;1.20;;;;;;;-1.20;77.48;101336.47;5064739;28;20469;-74
2021/12/22 02:15:44;;;;;;;1.67;1.50;;;;;;;-1.36;78.10;101335.63;5063644;28;20031;-73
2021/12/22 02:18:15;;;;;;;0.88;0.82;;;;;;;-1.19;77.96;101338.19;5064925;28;20021;-72
2021/12/22 02:20:41;;;;;;;1.17;1.00;;;;;;;-1.30;77.99;101335.94;5064941;28;20029;-73
2021/12/22 02:23:06;;;;;;;5.32;1.48;;;;;;;-1.45;78.63;101358.88;5064630;28;20021;-72
2021/12/22 02:25:42;;;;;;;0.98;0.75;;;;;;;-1.30;78.42;101350.34;5064548;28;20048;-73
2021/12/22 02:28:15;;;;;;;1.30;0.93;;;;;;;-1.31;78.49;101354.56;5064618;28;20021;-72
2021/12/22 02:30:40;;;;;;;1.95;0.90;;;;;;;-1.12;77.86;101347.94;5063359;28;20017;-73
2021/12/22 02:33:21;;;;;;;1.52;1.30;;;;;;;-1.23;78.19;101338.84;5064651;28;20029;-73
2021/12/22 02:36:24;;;;;;;1.45;0.98;;;;;;;-1.23;78.03;101349.03;5063156;28;20505;-73
2021/12/22 02:38:45;;;;;;;1.48;1.10;;;;;;;-1.32;78.54;101336.63;5063148;28;20047;-71
2021/12/22 02:41:14;;;;;;;2.42;1.20;;;;;;;-1.32;78.30;101347.72;5064272;28;20136;-73
2021/12/22 02:43:53;;;;;;;1.45;1.00;;;;;;;-1.59;79.43;101337.75;5064474;28;20377;-73
2021/12/22 02:46:31;;;;;;;3.47;1.20;;;;;;;-1.28;78.61;101326.69;5064391;28;20108;-73
2021/12/22 02:48:59;;;;;;;1.48;1.00;;;;;;;-1.30;78.67;101332.50;5064085;28;20477;-73
2021/12/22 02:51:29;;;;;;;1.50;1.40;;;;;;;-1.14;78.27;101335.13;5064157;28;20085;-73
2021/12/22 02:56:39;;;;;;;2.78;1.40;;;;;;;-1.08;78.12;101316.72;5063991;28;20025;-73
2021/12/22 02:59:18;;;;;;;2.20;1.05;;;;;;;-1.43;78.98;101323.31;5064126;28;20029;-73
2021/12/22 03:04:30;;;;;;;2.17;1.35;;;;;;;-1.21;78.25;101319.38;5064124;28;20085;-72
2021/12/22 03:07:02;;;;;;;1.38;1.15;;;;;;;-1.37;78.93;101327.09;5063920;28;20088;-73
2021/12/22 03:09:30;;;;;;;1.15;1.05;;;;;;;-1.20;78.80;101316.06;5063779;28;20021;-72
2021/12/22 03:11:59;;;;;;;2.17;1.35;;;;;;;-1.21;78.34;101315.19;5063409;28;20049;-72
2021/12/22 03:14:25;;;;;;;3.08;1.90;;;;;;;-1.39;78.63;101308.28;5063468;28;20028;-72
2021/12/22 03:16:51;;;;;;;1.23;1.10;;;;;;;-1.30;78.99;101315.56;5063114;28;20021;-72
2021/12/22 03:19:19;;;;;;;2.85;1.45;;;;;;;-1.31;79.04;101312.94;5063525;28;20017;-72
2021/12/22 03:21:46;;;;;;;1.35;1.25;;;;;;;-1.23;78.78;101321.84;5063386;28;20021;-72
2021/12/22 03:24:13;;;;;;;4.63;1.85;;;;;;;-1.29;78.67;101314.75;5063526;28;20225;-72
2021/12/22 03:26:42;;;;;;;2.85;1.50;;;;;;;-1.45;79.49;101314.72;5063286;28;20020;-72
2021/12/22 03:29:09;;;;;;;3.05;1.77;;;;;;;-1.38;79.52;101306.63;5063545;28;20025;-71
2021/12/22 03:31:35;;;;;;;2.58;1.67;;;;;;;-1.43;79.37;101311.47;5063265;28;20039;-73
2021/12/22 03:34:00;;;;;;;1.95;1.20;;;;;;;-1.35;79.35;101319.53;5063085;28;20461;-73
2021/12/22 03:36:25;;;;;;;1.17;1.00;;;;;;;-1.56;79.45;101302.25;5063270;28;20028;-72
2021/12/22 03:38:51;;;;;;;1.55;1.15;;;;;;;-1.29;78.83;101312.22;5063389;28;20031;-72
2021/12/22 03:41:16;;;;;;;1.42;1.20;;;;;;;-1.38;79.18;101302.41;5062980;28;20025;-71
2021/12/22 03:43:42;;;;;;;1.42;1.23;;;;;;;-1.34;78.96;101308.53;5063209;28;20032;-71
2021/12/22 03:46:07;;;;;;;1.65;1.25;;;;;;;-1.28;78.61;101303.78;5062915;28;20048;-73
2021/12/22 03:48:33;;;;;;;3.08;1.40;;;;;;;-1.22;78.19;101310.00;5063101;28;20048;-72
2021/12/22 03:50:58;;;;;;;1.60;1.10;;;;;;;-1.41;79.32;101298.81;5063016;28;20052;-71
2021/12/22 03:53:24;;;;;;;2.05;1.38;;;;;;;-1.45;79.27;101307.09;5063225;28;20339;-73
2021/12/22 03:55:49;;;;;;;1.10;0.90;;;;;;;-1.23;78.65;101303.16;5063193;28;20032;-72
2021/12/22 03:58:15;;;;;;;1.80;1.27;;;;;;;-1.48;79.02;101296.69;5062967;28;20104;-72
2021/12/22 04:00:41;;;;;;;2.13;1.50;;;;;;;-1.40;79.23;101298.00;5062992;28;20032;-73
2021/12/22 04:03:15;;;;;;;1.85;1.35;;;;;;;-1.26;78.38;101286.03;5063081;28;20025;-73
2021/12/22 04:05:40;;;;;;;1.75;1.30;;;;;;;-1.33;78.50;101279.75;5063005;28;20021;-73
2021/12/22 04:08:05;;;;;;;2.17;1.52;;;;;;;-1.44;79.00;101298.66;5063103;28;20021;-72
2021/12/22 04:10:31;;;;;;;4.60;1.40;;;;;;;-1.51;79.63;101285.56;5062970;28;20120;-73
2021/12/22 04:12:57;;;;;;;2.10;1.90;;;;;;;-1.38;78.92;101287.13;5062905;28;20029;-74
2021/12/22 04:15:26;;;;;;;4.50;1.35;;;;;;;-1.47;79.68;101283.19;5062978;28;20032;-72
2021/12/22 04:17:52;;;;;;;1.15;0.90;;;;;;;-1.39;79.41;101292.13;5063168;28;20283;-72
2021/12/22 04:20:17;;;;;;;2.80;1.42;;;;;;;-1.43;79.31;101283.44;5062879;28;20472;-71
2021/12/22 04:22:43;;;;;;;1.10;0.90;;;;;;;-1.49;79.27;101290.75;5062921;28;20056;-72
2021/12/22 04:25:09;;;;;;;4.97;1.42;;;;;;;-1.53;79.41;101279.50;5062948;28;20113;-72
2021/12/22 04:27:36;;;;;;;1.48;1.10;;;;;;;-1.59;79.74;101270.63;5061519;28;20036;-73
2021/12/22 04:30:03;;;;;;;2.88;1.30;;;;;;;-1.58;79.45;101283.47;5065673;28;20043;-73
2021/12/22 04:32:29;;;;;;;1.60;1.30;;;;;;;-1.34;78.73;101283.06;5066879;28;20083;-73
2021/12/22 04:34:54;;;;;;;2.00;1.58;;;;;;;-1.65;80.14;101261.91;5066689;28;20290;-73
2021/12/22 04:37:19;;;;;;;2.00;1.40;;;;;;;-1.61;80.12;101285.84;5066947;28;20024;-73
2021/12/22 04:39:45;;;;;;;1.38;1.10;;;;;;;-1.64;80.57;101278.03;5066619;28;20055;-72
2021/12/22 04:42:10;;;;;;;2.33;1.67;;;;;;;-1.55;80.17;101280.22;5066382;28;20025;-72
2021/12/22 04:44:35;;;;;;;1.45;1.23;;;;;;;-1.59;79.83;101281.72;5066750;28;20093;-72
2021/12/22 04:47:01;;;;;;;1.15;1.05;;;;;;;-1.57;80.61;101276.72;5066689;28;20024;-72
2021/12/22 04:49:26;;;;;;;1.17;1.08;;;;;;;-1.58;79.84;101278.38;5065190;28;20073;-72
2021/12/22 04:51:54;;;;;;;1.35;1.00;;;;;;;-1.75;80.94;101290.16;5065180;28;20021;-72
2021/12/22 04:56:55;;;;;;;1.55;1.23;;;;;;;-1.70;81.30;101282.78;5066638;28;20242;-71
2021/12/22 04:59:21;;;;;;;4.60;2.08;;;;;;;-1.69;80.93;101280.31;5066464;28;20111;-72
2021/12/22 05:01:47;;;;;;;1.88;1.45;;;;;;;-1.70;80.84;101267.50;5066185;28;20095;-73
2021/12/22 05:04:13;;;;;;;2.50;1.80;;;;;;;-1.73;80.78;101275.84;5066232;28;20477;-72
2021/12/22 05:06:38;;;;;;;3.45;1.88;;;;;;;-1.81;81.37;101270.34;5066200;28;20017;-71
2021/12/22 05:09:05;;;;;;;2.40;1.98;;;;;;;-1.84;81.73;101265.06;5066127;28;20032;-70
2021/12/22 05:11:30;;;;;;;3.58;1.83;;;;;;;-1.63;81.02;101280.66;5065715;28;20504;-71
2021/12/22 05:13:56;;;;;;;1.30;1.20;;;;;;;-1.70;81.45;101278.56;5066067;28;20029;-72
2021/12/22 05:16:22;;;;;;;2.08;1.42;;;;;;;-1.53;80.45;101271.88;5065896;28;20031;-71
2021/12/22 05:19:12;;;;;;;3.10;1.45;;;;;;;-1.43;79.81;101262.19;5065997;28;20040;-71
2021/12/22 05:21:38;;;;;;;2.38;1.80;;;;;;;-1.49;80.03;101265.28;5064628;28;20036;-70
2021/12/22 05:24:04;;;;;;;2.70;1.48;;;;;;;-1.31;79.82;101267.94;5065925;28;20050;-71
2021/12/22 05:26:29;;;;;;;2.53;1.60;;;;;;;-1.45;79.86;101279.94;5065625;28;20039;-71
2021/12/22 05:28:55;;;;;;;1.17;1.00;;;;;;;-1.54;79.99;101272.66;5065818;28;20033;-71
2021/12/22 05:31:22;;;;;;;2.40;1.65;;;;;;;-1.46;79.93;101255.25;5065652;28;20025;-71
2021/12/22 05:33:47;;;;;;;2.45;1.80;;;;;;;-1.53;80.55;101270.97;5065852;28;20116;-69
2021/12/22 05:36:13;;;;;;;2.35;1.23;;;;;;;-1.41;79.89;101266.59;5065724;28;20028;-71
2021/12/22 05:38:38;;;;;;;3.60;1.85;;;;;;;-1.45;79.90;101271.44;5063784;28;20088;-73
2021/12/22 05:41:03;;;;;;;3.47;1.67;;;;;;;-1.54;80.40;101261.59;5065531;28;20044;-71
2021/12/22 05:43:29;;;;;;;1.95;1.50;;;;;;;-1.66;80.39;101265.22;5065577;28;20465;-69
2021/12/22 05:45:55;;;;;;;3.80;2.15;;;;;;;-1.57;80.55;101259.78;5065551;28;20017;-71
2021/12/22 05:48:21;;;;;;;2.97;1.65;;;;;;;-1.54;80.37;101272.66;5065506;28;20291;-70
2021/12/22 05:50:50;;;;;;;3.13;1.98;;;;;;;-1.75;81.23;101270.69;5065374;28;20023;-68
2021/12/22 05:53:16;;;;;;;7.45;2.00;;;;;;;-1.53;80.28;101282.06;5065491;28;20033;-70
2021/12/22 05:55:41;;;;;;;3.10;2.10;;;;;;;-1.69;81.14;101265.03;5065378;28;20107;-70
2021/12/22 05:58:07;;;;;;;4.70;2.05;;;;;;;-1.60;80.63;101261.25;5065161;28;20123;-71
2021/12/22 06:00:32;;;;;;;2.10;1.55;;;;;;;-1.41;80.04;101266.59;5065214;28;20044;-71
2021/12/22 06:02:57;;;;;;;3.22;2.15;;;;;;;-1.73;81.03;101269.88;5065300;28;20029;-70
2021/12/22 06:05:23;;;;;;;4.05;2.08;;;;;;;-1.55;80.38;101263.25;5065401;28;20084;-71
2021/12/22 06:07:48;;;;;;;4.55;1.90;;;;;;;-1.57;80.16;101254.69;5065274;28;20033;-70
2021/12/22 06:10:14;;;;;;;3.33;2.08;;;;;;;-1.61;81.00;101268.00;5065145;28;20072;-71
2021/12/22 06:12:39;;;;;;;3.15;2.05;;;;;;;-1.75;80.76;101254.53;5063750;28;20027;-70
2021/12/22 06:15:05;;;;;;;2.85;1.83;;;;;;;-1.83;81.52;101249.00;5065252;28;20025;-71
2021/12/22 06:17:31;;;;;;;3.45;2.25;;;;;;;-1.72;81.28;101256.34;5065274;28;20055;-71
2021/12/22 06:19:56;;;;;;;1.52;1.30;;;;;;;-1.72;81.16;101269.97;5063908;28;20041;-71
2021/12/22 06:22:22;;;;;;;2.05;1.48;;;;;;;-1.76;81.71;101265.50;5065144;28;20041;-69
2021/12/22 06:24:48;;;;;;;3.08;1.35;;;;;;;-1.76;81.81;101263.81;5064745;28;20024;-70
2021/12/22 06:27:13;;;;;;;3.25;1.88;;;;;;;-1.82;81.42;101263.47;5064575;28;20029;-70
2021/12/22 06:29:38;;;;;;;4.47;1.65;;;;;;;-1.83;81.60;101254.09;5063401;28;20572;-70
2021/12/22 06:32:05;;;;;;;2.85;1.90;;;;;;;-1.58;80.75;101255.44;5064726;28;20021;-73
2021/12/22 06:34:31;;;;;;;3.92;2.03;;;;;;;-1.84;81.30;101254.00;5064819;28;20013;-71
2021/12/22 06:36:56;;;;;;;4.53;2.38;;;;;;;-1.95;81.70;101259.34;5064796;28;20029;-72
2021/12/22 06:39:22;;;;;;;1.88;1.67;;;;;;;-1.84;81.65;101267.63;5063345;28;20029;-70
2021/12/22 06:41:48;;;;;;;2.58;1.58;;;;;;;-1.87;81.63;101260.66;5063176;28;20031;-71
2021/12/22 06:44:14;;;;;;;2.28;2.08;;;;;;;-2.00;81.90;101271.81;5063378;28;20028;-70
2021/12/22 06:46:43;;;;;;;4.15;2.58;;;;;;;-1.98;81.95;101268.50;5063257;28;20027;-71
2021/12/22 06:49:12;;;;;;;3.10;2.10;;;;;;;-1.91;82.18;101278.22;5064618;28;20158;-73
2021/12/22 06:51:38;;;;;;;4.93;2.25;;;;;;;-1.95;82.08;101267.00;5063729;28;20017;-72
2021/12/22 06:54:04;;;;;;;4.60;2.25;;;;;;;-1.83;81.30;101264.28;5064756;28;20021;-71
2021/12/22 06:56:29;;;;;;;6.43;2.83;;;;;;;-1.93;81.78;101274.75;5064370;28;20048;-74
2021/12/22 06:58:57;;;;;;;5.90;2.10;;;;;;;-1.96;81.93;101264.34;5064726;28;20025;-73
2021/12/22 07:01:22;;;;;;;4.80;2.53;;;;;;;-2.07;82.33;101272.28;5064253;28;20107;-73
2021/12/22 07:03:54;;;;;;;4.60;2.00;;;;;;;-1.77;81.68;101272.25;5062852;28;20040;-73
2021/12/22 07:06:19;;;;;;;3.65;2.47;;;;;;;-1.88;81.39;101258.03;5064094;28;20106;-72
2021/12/22 07:08:45;;;;;;;6.60;3.20;;;;;;;-2.08;82.03;101267.09;5064347;28;20037;-72
2021/12/22 07:11:10;;;;;;;10.93;4.57;;;;;;;-1.94;81.80;101270.44;5063722;28;20106;-73
2021/12/22 07:13:36;;;;;;;7.10;3.33;;;;;;;-2.04;82.63;101266.47;5064171;28;20052;-72
2021/12/22 07:16:01;;;;;;;5.25;3.13;;;;;;;-2.06;82.89;101271.47;5062757;28;20047;-72
2021/12/22 07:18:27;;;;;;;3.53;1.83;;;;;;;-1.77;81.66;101272.25;5064073;28;20521;-74
2021/12/22 07:20:53;;;;;;;4.20;2.03;;;;;;;-1.96;81.78;101269.44;5063970;28;20025;-74
2021/12/22 07:23:18;;;;;;;5.00;2.42;;;;;;;-1.95;81.81;101269.53;5063960;28;20027;-73
2021/12/22 07:25:44;;;;;;;7.40;3.78;;;;;;;-1.93;81.60;101274.75;5063933;28;20039;-73
2021/12/22 07:28:10;;;;;;;4.32;1.90;;;;;;;-1.84;81.13;101257.44;5062251;28;20021;-73
2021/12/22 07:30:39;;;;;;;3.88;1.92;;;;;;;-1.82;81.23;101268.56;5063902;28;20021;-72
2021/12/22 07:33:05;;;;;;;6.72;2.47;;;;;;;-1.91;81.24;101275.69;5063717;28;20021;-72
2021/12/22 07:35:39;;;;;;;8.73;3.58;;;;;;;-2.09;82.19;101280.63;5063662;28;20028;-72
2021/12/22 07:38:25;;;;;;;3.42;2.50;;;;;;;-1.94;81.77;101275.50;5062357;28;20288;-72
2021/12/22 07:40:52;;;;;;;3.80;2.30;;;;;;;-1.94;81.39;101278.06;5062337;28;20493;-73
2021/12/22 07:43:18;;;;;;;4.40;2.55;;;;;;;-1.92;81.30;101285.00;5063453;28;20031;-74
2021/12/22 07:45:44;;;;;;;8.07;3.30;;;;;;;-1.93;81.38;101284.94;5063489;28;20017;-69
2021/12/22 07:48:09;;;;;;;4.30;2.05;;;;;;;-2.00;81.73;101279.44;5063666;28;20098;-69
2021/12/22 07:50:35;;;;;;;6.38;2.67;;;;;;;-2.07;81.56;101279.91;5063598;28;20035;-69
2021/12/22 07:53:01;;;;;;;4.65;2.70;;;;;;;-2.08;82.13;101288.34;5063731;28;20013;-69
2021/12/22 07:55:26;;;;;;;4.07;2.30;;;;;;;-2.06;82.30;101286.75;5063385;28;20027;-69
2021/12/22 07:57:51;;;;;;;7.25;2.80;;;;;;;-1.98;81.68;101283.78;5062049;28;20024;-69
2021/12/22 08:00:17;;;;;;;3.78;2.60;;;;;;;-2.07;82.04;101285.00;5063478;28;20052;-71
2021/12/22 08:02:42;;;;;;;4.78;2.25;;;;;;;-2.15;82.29;101276.03;5063368;28;20017;-69
2021/12/22 08:05:08;;;;;;;6.85;3.95;;;;;;;-2.01;81.90;101285.34;5063315;28;20017;-72
2021/12/22 08:07:34;;;;;;;8.88;3.85;;;;;;;-1.99;82.29;101285.44;5063212;28;20424;-70
2021/12/22 08:10:01;;;;;;;3.65;2.65;;;;;;;-1.97;82.18;101285.53;5063067;28;20028;-70
2021/12/22 08:12:26;;;;;;;6.03;3.08;;;;;;;-2.02;82.18;101286.16;5063088;28;20021;-72
2021/12/22 08:14:52;;;;;;;2.20;1.70;;;;;;;-1.81;81.55;101272.88;5063298;28;20091;-72
2021/12/22 08:17:17;;;;;;;3.97;2.10;;;;;;;-1.93;81.42;101284.94;5063300;28;20100;-70
2021/12/22 08:19:43;;;;;;;4.70;1.98;;;;;;;-1.94;81.87;101281.50;5061928;28;20025;-71
2021/12/22 08:22:08;;;;;;;3.90;1.88;;;;;;;-2.02;81.84;101273.41;5061941;28;20491;-71
2021/12/22 08:24:34;;;;;;;4.13;2.25;;;;;;;-2.04;82.08;101290.25;5063091;28;20029;-71
2021/12/22 08:26:59;;;;;;;3.58;2.28;;;;;;;-1.91;81.63;101294.38;5061829;28;20025;-71
2021/12/22 08:29:25;;;;;;;8.40;2.42;;;;;;;-1.84;81.79;101277.81;5063113;28;20055;-72
2021/12/22 08:31:50;;;;;;;5.10;2.08;;;;;;;-1.75;80.67;101277.44;5063040;28;20389;-72
2021/12/22 08:34:23;;;;;;;3.47;2.35;;;;;;;-1.90;81.23;101285.94;5061661;28;20028;-71
2021/12/22 08:39:33;;;;;;;4.13;2.42;;;;;;;-2.01;82.24;101292.97;5063253;28;20040;-72
2021/12/22 08:41:59;;;;;;;5.30;3.00;;;;;;;-2.00;82.08;101297.28;5062850;28;20021;-70
2021/12/22 08:44:26;;;;;;;4.20;2.53;;;;;;;-1.95;82.42;101299.22;5063087;28;20021;-71
2021/12/22 08:46:52;;;;;;;6.55;3.05;;;;;;;-1.95;82.23;101300.06;5062971;28;20028;-70
2021/12/22 08:49:20;;;;;;;2.38;1.65;;;;;;;-1.92;82.27;101302.81;5061461;28;20362;-71
2021/12/22 08:51:46;;;;;;;10.05;2.88;;;;;;;-1.89;82.37;101310.63;5062885;28;20082;-70
2021/12/22 08:54:12;;;;;;;2.67;2.25;;;;;;;-1.89;82.13;101310.63;5062985;28;20017;-69
2021/12/22 08:56:38;;;;;;;4.75;2.72;;;;;;;-1.90;82.22;101298.69;5062662;28;20041;-70
2021/12/22 08:59:06;;;;;;;4.65;2.90;;;;;;;-1.83;81.72;101297.38;5062925;28;20025;-70
2021/12/22 09:01:31;;;;;;;6.88;3.40;;;;;;;-1.86;81.92;101307.38;5062692;28;20029;-70
2021/12/22 09:03:57;;;;;;;3.72;2.33;;;;;;;-1.81;82.13;101300.88;5062620;28;20047;-70
2021/12/22 09:06:23;;;;;;;2.33;1.45;;;;;;;-1.69;81.10;101292.19;5061382;28;20024;-71
2021/12/22 09:08:48;;;;;;;3.40;2.38;;;;;;;-1.77;81.14;101301.91;5062776;28;20028;-69
2021/12/22 09:11:14;;;;;;;3.55;1.98;;;;;;;-1.88;81.26;101289.47;5062526;28;20536;-71
2021/12/22 09:13:40;;;;;;;3.92;2.28;;;;;;;-1.87;81.36;101288.69;5061467;28;20420;-70
2021/12/22 09:16:08;;;;;;;6.60;2.80;;;;;;;-1.98;82.17;101297.34;5066268;28;20035;-68
2021/12/22 09:18:35;;;;;;;6.20;3.10;;;;;;;-1.97;82.62;101304.22;5064938;28;20025;-68
2021/12/22 09:21:01;;;;;;;5.57;3.15;;;;;;;-1.72;81.39;101314.91;5066204;28;20079;-68
2021/12/22 09:23:26;;;;;;;5.10;3.33;;;;;;;-1.91;81.71;101307.13;5065966;28;20025;-68
2021/12/22 09:25:52;;;;;;;3.47;2.13;;;;;;;-1.79;81.10;101299.28;5066033;28;20136;-68
2021/12/22 09:28:17;;;;;;;5.80;2.55;;;;;;;-1.77;80.96;101307.00;5065757;28;20081;-68
2021/12/22 09:30:44;;;;;;;3.10;2.05;;;;;;;-1.80;81.10;101310.28;5066010;28;20059;-68
2021/12/22 09:33:12;;;;;;;4.78;2.05;;;;;;;-1.85;81.48;101309.13;5065833;28;20056;-67
2021/12/22 09:35:38;;;;;;;6.55;2.88;;;;;;;-2.02;82.20;101311.59;5065692;28;20477;-68
2021/12/22 09:38:05;;;;;;;4.20;2.20;;;;;;;-1.89;81.88;101308.09;5065881;28;20029;-69
2021/12/22 09:40:31;;;;;;;4.78;2.55;;;;;;;-1.85;81.70;101309.13;5065877;28;20080;-68
2021/12/22 09:42:57;;;;;;;4.00;2.60;;;;;;;-1.60;81.09;101305.44;5065692;28;20025;-68
2021/12/22 09:45:25;;;;;;;6.47;2.15;;;;;;;-1.84;81.43;101308.34;5065789;28;20024;-67
2021/12/22 09:50:54;;;;;;;3.08;2.00;;;;;;;-1.58;80.76;101303.84;5044210;28;20051;-68
2021/12/22 09:53:23;;;;;;;8.10;3.08;;;;;;;-1.81;81.47;101300.00;5066018;28;20021;-68
2021/12/22 09:55:50;;;;;;;2.08;1.70;;;;;;;-1.55;80.91;101298.06;5065663;28;20268;-68
2021/12/22 09:58:16;;;;;;;2.78;2.10;;;;;;;-1.87;81.84;101300.53;5065606;28;20516;-67
2021/12/22 10:00:43;;;;;;;3.85;2.22;;;;;;;-1.63;81.01;101290.00;5064371;28;20405;-67
2021/12/22 10:03:10;;;;;;;4.93;2.85;;;;;;;-1.95;82.23;101297.53;5065516;28;20021;-67
2021/12/22 10:05:36;;;;;;;5.03;2.97;;;;;;;-2.06;82.92;101290.97;5065196;28;20086;-68
2021/12/22 10:08:10;;;;;;;4.55;2.58;;;;;;;-1.93;83.12;101295.97;5065243;28;20029;-70
2021/12/22 10:10:39;;;;;;;4.72;3.72;;;;;;;-1.63;81.84;101295.94;5065177;28;20072;-69
2021/12/22 10:13:11;;;;;;;4.30;1.35;;;;;;;-1.70;81.37;101277.69;5065208;28;20416;-68
2021/12/22 10:15:37;;;;;;;9.70;4.50;;;;;;;-1.83;82.15;101296.47;5065182;28;20025;-68
2021/12/22 10:18:12;;;;;;;6.05;2.97;;;;;;;-1.82;82.51;101288.94;5065201;28;20028;-68
2021/12/22 10:20:39;;;;;;;3.13;1.92;;;;;;;-1.63;81.56;101282.34;5065041;28;20029;-68
2021/12/22 10:23:28;;;;;;;2.75;2.13;;;;;;;-1.50;80.94;101287.31;5065160;28;20036;-68
2021/12/22 10:25:57;;;;;;;2.40;1.90;;;;;;;-1.57;81.27;101285.22;5063913;28;20059;-68
2021/12/22 10:28:24;;;;;;;5.13;2.97;;;;;;;-1.57;81.38;101281.81;5064881;28;20051;-69
2021/12/22 10:30:55;;;;;;;4.75;2.90;;;;;;;-1.59;81.58;101276.63;5065059;28;20024;-69
2021/12/22 10:33:24;;;;;;;4.47;2.03;;;;;;;-1.55;80.89;101262.41;5065228;28;20017;-68
2021/12/22 10:36:02;;;;;;;7.05;1.95;;;;;;;-1.54;80.93;101274.34;5064870;28;20108;-68
2021/12/22 10:38:30;;;;;;;4.55;2.85;;;;;;;-1.53;80.92;101266.78;5064802;28;20084;-68
2021/12/22 10:41:04;;;;;;;2.30;1.73;;;;;;;-1.52;80.90;101267.66;5064822;28;20100;-68
2021/12/22 10:43:32;;;;;;;6.10;3.75;;;;;;;-1.71;81.84;101266.63;5064696;28;20029;-68
2021/12/22 10:46:00;;;;;;;5.82;3.15;;;;;;;-1.76;82.39;101273.16;5064675;28;20048;-68
2021/12/22 10:51:25;;;;;;;6.78;2.47;;;;;;;-1.41;80.94;101261.50;5064915;28;20031;-69
2021/12/22 10:53:53;;;;;;;4.32;2.58;;;;;;;-1.55;81.54;101273.44;5064811;28;20076;-68
2021/12/22 10:56:39;;;;;;;3.53;2.20;;;;;;;-1.46;81.18;101265.44;5063115;28;20052;-69
2021/12/22 10:59:18;;;;;;;2.17;1.67;;;;;;;-1.48;81.26;101263.59;5064698;28;20052;-70
2021/12/22 11:01:49;;;;;;;4.95;2.97;;;;;;;-1.57;81.67;101271.63;5064319;28;20017;-68
2021/12/22 11:04:20;;;;;;;2.15;1.77;;;;;;;-1.33;81.02;101261.91;5064201;28;20551;-69
2021/12/22 11:06:48;;;;;;;4.33;1.93;;;;;;;-1.40;81.16;101264.91;5064273;28;20060;-68
2021/12/22 11:09:16;;;;;;;4.35;2.17;;;;;;;-1.52;81.57;101270.22;5064049;28;20046;-69
2021/12/22 11:11:56;;;;;;;4.32;2.90;;;;;;;-1.43;81.38;101269.81;5063854;28;20055;-69
2021/12/22 11:14:24;;;;;;;3.03;1.73;;;;;;;-1.42;81.23;101274.13;5064103;28;20028;-68
2021/12/22 11:17:02;;;;;;;2.70;1.85;;;;;;;-1.34;80.94;101270.31;5063958;28;20021;-69
2021/12/22 11:19:30;;;;;;;4.32;2.05;;;;;;;-1.52;81.45;101270.22;5064105;28;20039;-69
2021/12/22 11:22:05;;;;;;;4.00;2.58;;;;;;;-1.52;81.49;101265.97;5063859;28;20056;-69
2021/12/22 11:24:34;;;;;;;2.15;1.88;;;;;;;-1.43;81.28;101259.63;5064165;28;20020;-69
2021/12/22 11:27:01;;;;;;;3.67;1.50;;;;;;;-1.43;81.42;101247.78;5063595;28;20031;-69
2021/12/22 11:29:27;;;;;;;4.20;2.35;;;;;;;-1.26;80.65;101258.88;5063647;28;20033;-69
2021/12/22 11:31:53;;;;;;;5.63;3.15;;;;;;;-1.51;81.91;101262.66;5063889;28;20067;-67
2021/12/22 11:34:20;;;;;;;2.60;1.75;;;;;;;-1.39;81.58;101262.44;5064000;28;20493;-68
2021/12/22 11:36:47;;;;;;;4.40;2.50;;;;;;;-1.48;82.15;101272.13;5061971;28;20116;-67
2021/12/22 11:39:13;;;;;;;3.95;2.70;;;;;;;-1.50;82.23;101256.75;5063743;28;20021;-67
2021/12/22 11:41:44;;;;;;;5.43;3.10;;;;;;;-1.43;82.60;101269.81;5063299;28;20039;-67
2021/12/22 11:44:13;;;;;;;4.05;2.47;;;;;;;-1.26;82.15;101256.31;5063693;28;20035;-67
2021/12/22 11:46:39;;;;;;;4.55;2.28;;;;;;;-1.15;81.00;101258.59;5063526;28;20029;-68
2021/12/22 11:49:05;;;;;;;3.17;1.73;;;;;;;-1.26;81.20;101251.22;5063679;28;20043;-67